Time;durP1;ratioP1;P1;durP2;ratioP2;P2;SDS_P1;SDS_P2;PMS_P1;PMS_P2;Temp;Humidity;BMP_temperature;BMP_pressure;BME280_temperature;BME280_humidity;BME280_pressure;Samples;Min_cycle;Max_cycle;Signal;HPM_P1;HPM_P2
2022/04/01 00:00:01;;;;;;;;;;;;;;;22.21;36.81;93567.03;2046565;28;1516;-71
2022/04/01 00:01:03;;;;;;;;;;;;;;;22.22;36.55;93565.97;2048268;29;1710;-70
2022/04/01 00:02:05;;;;;;;;;;;;;;;22.22;36.25;93557.94;2049365;28;991;-72
2022/04/01 00:03:06;;;;;;;;;;;;;;;22.22;36.36;93558.75;2048126;28;1464;-70
2022/04/01 00:04:08;;;;;;;;;;;;;;;22.22;36.30;93558.75;2047461;28;1667;-72
2022/04/01 00:05:11;;;;;;;;;;;;;;;22.22;36.41;93566.75;2040281;29;1174;-73
2022/04/01 00:06:12;;;;;;;;;;;;;;;22.24;36.60;93564.66;2040382;29;1105;-71
2022/04/01 00:07:14;;;;;;;;;;;;;;;22.24;36.26;93558.50;2040549;29;1523;-71
2022/04/01 00:08:16;;;;;;;;;;;;;;;22.23;36.39;93557.69;2035648;29;1393;-73
2022/04/01 00:09:17;;;;;;;;;;;;;;;22.23;36.64;93557.69;2041185;29;1011;-72
2022/04/01 00:10:19;;;;;;;;;;;;;;;22.22;36.53;93556.06;2041436;29;1165;-71
2022/04/01 00:11:20;;;;;;;;;;;;;;;22.23;36.72;93552.34;2040584;29;1701;-69
2022/04/01 00:12:22;;;;;;;;;;;;;;;22.24;36.56;93555.81;2045046;29;1534;-69
2022/04/01 00:13:23;;;;;;;;;;;;;;;22.23;36.53;93551.53;2046497;29;1688;-68
2022/04/01 00:14:25;;;;;;;;;;;;;;;22.25;36.29;93546.72;2048139;29;1565;-71
2022/04/01 00:15:27;;;;;;;;;;;;;;;22.25;36.65;93544.88;2043962;29;1618;-71
2022/04/01 00:16:28;;;;;;;;;;;;;;;22.24;36.20;93548.59;2047791;29;1652;-72
2022/04/01 00:17:30;;;;;;;;;;;;;;;22.26;36.41;93548.34;2045581;29;1757;-72
2022/04/01 00:18:32;;;;;;;;;;;;;;;22.25;36.28;93538.69;2043469;28;1938;-68
2022/04/01 00:19:34;;;;;;;;;;;;;;;22.25;36.38;93539.53;2048311;28;1688;-73
2022/04/01 00:20:35;;;;;;;;;;;;;;;22.25;36.58;93528.81;2048858;28;1330;-72
2022/04/01 00:21:37;;;;;;;;;;;;;;;22.25;36.63;93522.66;2048318;28;1489;-73
2022/04/01 00:22:39;;;;;;;;;;;;;;;22.25;36.42;93525.31;2041739;29;1658;-71
2022/04/01 00:23:40;;;;;;;;;;;;;;;22.24;36.46;93532.53;2048421;28;1230;-73
2022/04/01 00:24:42;;;;;;;;;;;;;;;22.25;36.52;93522.66;2048126;29;1676;-72
2022/04/01 00:25:44;;;;;;;;;;;;;;;22.25;36.52;93522.66;2048799;28;1129;-73
2022/04/01 00:26:45;;;;;;;;;;;;;;;22.25;36.60;93534.16;2048732;28;1116;-71
2022/04/01 00:27:47;;;;;;;;;;;;;;;22.25;36.40;93528.00;2049222;28;1119;-73
2022/04/01 00:28:49;;;;;;;;;;;;;;;22.25;36.07;93522.66;2046817;29;1510;-73
2022/04/01 00:29:50;;;;;;;;;;;;;;;22.25;36.34;93528.00;2042730;28;1522;-71
2022/04/01 00:30:54;;;;;;;;;;;;;;;22.25;36.63;93525.31;2041053;29;1518;-68
2022/04/01 00:32:01;;;;;;;;;;;;;;;22.26;36.52;93532.31;2041314;29;1052;-73
2022/04/01 00:33:04;;;;;;;;;;;;;;;22.25;36.60;93523.47;2040188;29;1120;-72
2022/04/01 00:34:18;;;;;;;;;;;;;;;22.25;36.65;93523.47;2037924;29;1577;-71
2022/04/01 00:35:19;;;;;;;;;;;;;;;22.27;36.62;93533.91;2048453;29;972;-72
2022/04/01 00:36:21;;;;;;;;;;;;;;;22.26;36.70;93543.81;2048182;29;1512;-72
2022/04/01 00:37:23;;;;;;;;;;;;;;;22.27;36.79;93536.56;2048465;29;1370;-72
2022/04/01 00:38:25;;;;;;;;;;;;;;;22.26;36.40;93530.44;2048004;28;1977;-72
2022/04/01 00:39:29;;;;;;;;;;;;;;;22.27;36.35;93525.88;2048035;28;1653;-71
2022/04/01 00:40:31;;;;;;;;;;;;;;;22.27;37.21;93528.56;2044720;28;1481;-68
2022/04/01 00:41:33;;;;;;;;;;;;;;;22.26;36.82;93525.06;2048181;28;1112;-72
2022/04/01 00:42:34;;;;;;;;;;;;;;;22.27;36.45;93531.22;2048643;28;1438;-66
2022/04/01 00:43:36;;;;;;;;;;;;;;;22.25;36.91;93523.47;2047387;29;1543;-69
2022/04/01 00:44:38;;;;;;;;;;;;;;;22.25;36.76;93522.66;2048068;29;1045;-71
2022/04/01 00:45:40;;;;;;;;;;;;;;;22.24;36.55;93527.19;2046997;29;1510;-71
2022/04/01 00:46:42;;;;;;;;;;;;;;;22.24;36.53;93532.53;2047147;29;1711;-71
2022/04/01 00:47:44;;;;;;;;;;;;;;;22.24;36.65;93535.22;2045818;28;1763;-71
2022/04/01 00:48:46;;;;;;;;;;;;;;;22.25;36.69;93538.69;2047340;29;1634;-71
2022/04/01 00:49:47;;;;;;;;;;;;;;;22.24;36.58;93537.09;2049242;28;1667;-67
2022/04/01 00:50:49;;;;;;;;;;;;;;;22.24;36.89;93539.78;2046759;29;1814;-72
2022/04/01 00:51:52;;;;;;;;;;;;;;;22.23;36.72;93536.28;2045167;28;1653;-68
2022/04/01 00:52:53;;;;;;;;;;;;;;;22.22;37.13;93540.00;2049507;28;1536;-71
2022/04/01 00:53:55;;;;;;;;;;;;;;;22.23;37.13;93544.31;2050240;28;1075;-72
2022/04/01 00:54:57;;;;;;;;;;;;;;;22.22;36.99;93540.00;2049209;28;1646;-68
2022/04/01 00:55:59;;;;;;;;;;;;;;;22.22;36.96;93540.00;2048171;29;1954;-71
2022/04/01 00:57:05;;;;;;;;;;;;;;;22.23;37.00;93547.00;2049721;28;1054;-73
2022/04/01 00:58:08;;;;;;;;;;;;;;;22.23;37.15;93543.53;2049381;29;1190;-69
2022/04/01 00:59:11;;;;;;;;;;;;;;;22.23;36.93;93538.97;2049586;28;1914;-72
2022/04/01 01:00:13;;;;;;;;;;;;;;;22.22;37.21;93537.34;2049809;29;1023;-71
2022/04/01 01:01:14;;;;;;;;;;;;;;;22.24;36.92;93553.16;2049534;28;1704;-71
2022/04/01 01:02:16;;;;;;;;;;;;;;;22.22;37.06;93549.91;2049033;28;1841;-72
2022/04/01 01:03:20;;;;;;;;;;;;;;;22.23;36.96;93543.53;2040612;29;1569;-65
2022/04/01 01:04:22;;;;;;;;;;;;;;;22.22;37.05;93542.69;2050090;28;1117;-71
2022/04/01 01:05:24;;;;;;;;;;;;;;;22.22;37.24;93541.88;2050237;28;1200;-70
2022/04/01 01:06:26;;;;;;;;;;;;;;;22.23;37.04;93551.53;2050303;28;1022;-72
2022/04/01 01:07:30;;;;;;;;;;;;;;;22.23;37.02;93563.03;2050144;28;1188;-72
2022/04/01 01:08:32;;;;;;;;;;;;;;;22.23;37.06;93565.72;2049496;29;1015;-72
2022/04/01 01:09:33;;;;;;;;;;;;;;;22.23;37.09;93562.25;2045802;29;1658;-72
2022/04/01 01:10:35;;;;;;;;;;;;;;;22.23;37.00;93559.56;2049105;29;1152;-71
2022/04/01 01:11:37;;;;;;;;;;;;;;;22.22;37.22;93556.06;2049550;28;1101;-71
2022/04/01 01:12:39;;;;;;;;;;;;;;;22.24;37.07;93556.63;2048652;29;1560;-72
2022/04/01 01:13:41;;;;;;;;;;;;;;;22.23;37.11;93541.66;2045618;28;1042;-71
2022/04/01 01:14:44;;;;;;;;;;;;;;;22.24;37.28;93534.41;2049191;28;1436;-71
2022/04/01 01:15:46;;;;;;;;;;;;;;;22.23;37.40;93540.84;2046579;29;1684;-72
2022/04/01 01:16:48;;;;;;;;;;;;;;;22.24;37.19;93553.16;2041404;29;1570;-72
2022/04/01 01:17:50;;;;;;;;;;;;;;;22.23;37.27;93552.34;2041853;29;1120;-72
2022/04/01 01:19:03;;;;;;;;;;;;;;;22.24;37.13;93539.78;2047377;29;1914;-71
2022/04/01 01:20:12;;;;;;;;;;;;;;;22.23;37.17;93540.84;2049542;28;1530;-71
2022/04/01 01:21:15;;;;;;;;;;;;;;;22.23;37.44;93547.00;2049992;28;1104;-71
2022/04/01 01:22:16;;;;;;;;;;;;;;;22.24;37.47;93548.59;2047810;28;1642;-72
2022/04/01 01:23:18;;;;;;;;;;;;;;;22.24;37.30;93555.81;2043946;29;1588;-71
2022/04/01 01:24:30;;;;;;;;;;;;;;;22.24;37.39;93561.16;2049763;28;1112;-70
2022/04/01 01:25:34;;;;;;;;;;;;;;;22.25;37.21;93552.06;2046355;28;989;-71
2022/04/01 01:26:36;;;;;;;;;;;;;;;22.24;37.09;93561.16;2049843;28;1016;-70
2022/04/01 01:27:38;;;;;;;;;;;;;;;22.24;37.28;93559.28;2049414;28;1691;-71
2022/04/01 01:28:40;;;;;;;;;;;;;;;22.25;37.54;93557.41;2049180;29;1584;-70
2022/04/01 01:29:42;;;;;;;;;;;;;;;22.24;37.48;93558.50;2049287;29;1177;-71
2022/04/01 01:30:44;;;;;;;;;;;;;;;22.24;37.31;93556.63;2050005;28;1172;-71
2022/04/01 01:31:48;;;;;;;;;;;;;;;22.25;37.45;93554.75;2050109;28;979;-71
2022/04/01 01:32:50;;;;;;;;;;;;;;;22.23;37.49;93556.91;2048207;29;1371;-71
2022/04/01 01:33:53;;;;;;;;;;;;;;;22.24;37.54;93553.16;2049521;29;1019;-67
2022/04/01 01:34:54;;;;;;;;;;;;;;;22.25;37.66;93560.94;2049215;29;1022;-71
2022/04/01 01:35:56;;;;;;;;;;;;;;;22.24;37.61;93553.94;2044756;29;1065;-71
2022/04/01 01:36:58;;;;;;;;;;;;;;;22.25;37.71;93568.13;2049891;28;1216;-70
2022/04/01 01:38:01;;;;;;;;;;;;;;;22.24;37.43;93558.50;2049269;28;1520;-70
2022/04/01 01:39:04;;;;;;;;;;;;;;;22.24;37.59;93543.25;2049901;28;1999;-69
2022/04/01 01:40:06;;;;;;;;;;;;;;;22.24;37.87;93543.25;2049530;28;1288;-72
2022/04/01 01:41:08;;;;;;;;;;;;;;;22.26;37.45;93540.31;2049471;29;1083;-71
2022/04/01 01:42:10;;;;;;;;;;;;;;;22.23;37.75;93541.66;2049419;29;1028;-70
2022/04/01 01:43:12;;;;;;;;;;;;;;;22.25;37.50;93538.69;2049178;29;995;-72
2022/04/01 01:44:14;;;;;;;;;;;;;;;22.25;37.35;93544.03;2047700;29;1522;-72
2022/04/01 01:45:16;;;;;;;;;;;;;;;22.26;37.75;93545.69;2041219;29;1075;-72
2022/04/01 01:46:18;;;;;;;;;;;;;;;22.25;37.43;93558.25;2041556;29;998;-71
2022/04/01 01:47:20;;;;;;;;;;;;;;;22.25;37.96;93536.84;2036899;29;1042;-71
2022/04/01 01:48:22;;;;;;;;;;;;;;;22.26;37.72;93537.66;2044124;29;1679;-72
2022/04/01 01:49:24;;;;;;;;;;;;;;;22.26;37.70;93557.19;2049832;28;1560;-73
2022/04/01 01:55:46;;;;;;;;;;;;;;;22.27;37.84;93540.06;2041977;29;1179;-72
2022/04/01 01:56:48;;;;;;;;;;;;;;;22.28;37.71;93538.19;2045569;29;1473;-73
2022/04/01 01:57:50;;;;;;;;;;;;;;;22.28;38.17;93516.78;2043470;28;1551;-71
2022/04/01 01:58:53;;;;;;;;;;;;;;;22.28;38.23;93522.94;2049560;29;1011;-69
2022/04/01 01:59:55;;;;;;;;;;;;;;;22.28;38.13;93522.13;2048824;28;1985;-73
2022/04/01 02:00:57;;;;;;;;;;;;;;;22.29;38.08;93513.06;2049033;29;1121;-74
2022/04/01 02:02:00;;;;;;;;;;;;;;;22.29;37.67;93526.44;2048557;29;1733;-73
2022/04/01 02:03:04;;;;;;;;;;;;;;;22.29;37.84;93515.72;2049650;28;1514;-73
2022/04/01 02:04:06;;;;;;;;;;;;;;;22.30;38.04;93514.66;2049448;28;1672;-73
2022/04/01 02:05:07;;;;;;;;;;;;;;;22.31;37.91;93510.94;2049129;28;1536;-74
2022/04/01 02:06:09;;;;;;;;;;;;;;;22.29;38.46;93524.56;2049270;28;1010;-74
2022/04/01 02:07:11;;;;;;;;;;;;;;;22.30;38.19;93544.09;2049178;29;1042;-73
2022/04/01 02:08:13;;;;;;;;;;;;;;;22.31;37.64;93543.84;2049199;28;1035;-73
2022/04/01 02:09:16;;;;;;;;;;;;;;;22.19;37.85;93480.88;2043548;28;1524;-73
2022/04/01 02:10:17;;;;;;;;;;;;;;;22.32;38.32;93509.84;2047628;28;1608;-71
2022/04/01 02:11:19;;;;;;;;;;;;;;;22.32;37.96;93536.63;2040975;29;1581;-73
2022/04/01 02:12:21;;;;;;;;;;;;;;;22.34;38.64;93510.41;2041115;29;1045;-70
2022/04/01 02:13:23;;;;;;;;;;;;;;;22.39;38.90;93523.00;2040998;29;1710;-70
2022/04/01 02:14:26;;;;;;;;;;;;;;;22.36;38.61;93505.59;2041788;29;1172;-72
2022/04/01 02:15:28;;;;;;;;;;;;;;;22.35;38.32;93518.16;2042806;29;1560;-72
2022/04/01 02:16:29;;;;;;;;;;;;;;;22.33;38.21;93517.59;2049566;28;1014;-72
2022/04/01 02:17:31;;;;;;;;;;;;;;;22.33;38.17;93490.06;2049165;28;1108;-70
2022/04/01 02:18:32;;;;;;;;;;;;;;;22.33;38.80;93498.06;2049658;28;1094;-69
2022/04/01 02:19:34;;;;;;;;;;;;;;;22.31;38.58;93502.91;2044188;28;1915;-68
2022/04/01 02:20:36;;;;;;;;;;;;;;;22.30;37.99;93493.25;2048726;28;1543;-72
2022/04/01 02:21:38;;;;;;;;;;;;;;;22.27;37.65;93480.38;2049720;28;987;-74
2022/04/01 02:22:40;;;;;;;;;;;;;;;22.28;38.14;93464.09;2045113;28;1691;-70
2022/04/01 02:23:45;;;;;;;;;;;;;;;22.27;38.20;93473.16;2041675;29;1196;-68
2022/04/01 02:24:50;;;;;;;;;;;;;;;22.29;38.09;93470.25;2049200;28;1052;-71
2022/04/01 02:25:52;;;;;;;;;;;;;;;22.28;38.25;93474.78;2049551;28;1032;-70
2022/04/01 02:26:53;;;;;;;;;;;;;;;22.29;38.12;93486.28;2049553;28;1079;-74
2022/04/01 02:27:55;;;;;;;;;;;;;;;22.30;38.15;93483.34;2047416;28;1879;-72
2022/04/01 02:28:59;;;;;;;;;;;;;;;22.30;38.50;93477.19;2040885;29;1138;-73
2022/04/01 02:30:01;;;;;;;;;;;;;;;22.29;38.46;93475.59;2040957;29;1133;-73
2022/04/01 02:31:05;;;;;;;;;;;;;;;22.30;38.51;93478.00;2042570;28;1556;-72
2022/04/01 02:32:06;;;;;;;;;;;;;;;22.29;38.68;93465.69;2048686;28;1705;-74
2022/04/01 02:33:08;;;;;;;;;;;;;;;22.31;38.66;93476.16;2049469;28;1094;-71
2022/04/01 02:34:10;;;;;;;;;;;;;;;22.31;38.67;93473.47;2048743;29;1179;-69
2022/04/01 02:35:11;;;;;;;;;;;;;;;22.30;38.55;93474.50;2048232;29;1472;-73
2022/04/01 02:36:13;;;;;;;;;;;;;;;22.31;38.39;93462.78;2049576;28;999;-70
2022/04/01 02:37:14;;;;;;;;;;;;;;;22.31;38.63;93473.47;2049548;28;1648;-72
2022/04/01 02:38:16;;;;;;;;;;;;;;;22.31;38.82;93468.13;2048834;28;1032;-72
2022/04/01 02:39:18;;;;;;;;;;;;;;;22.30;38.65;93467.28;2048268;29;1332;-73
2022/04/01 02:40:19;;;;;;;;;;;;;;;22.31;38.88;93465.44;2048733;29;1907;-71
2022/04/01 02:41:21;;;;;;;;;;;;;;;22.31;38.89;93452.06;2048699;29;1021;-73
2022/04/01 02:42:22;;;;;;;;;;;;;;;22.31;39.05;93463.56;2043784;28;1334;-72
2022/04/01 02:43:25;;;;;;;;;;;;;;;22.32;38.85;93477.75;2048538;29;1706;-71
2022/04/01 02:44:26;;;;;;;;;;;;;;;22.31;38.69;93474.28;2047105;29;1733;-72
2022/04/01 02:45:28;;;;;;;;;;;;;;;22.32;38.78;93440.28;2047508;28;1584;-72
2022/04/01 02:46:30;;;;;;;;;;;;;;;22.31;39.14;93452.06;2046404;29;1554;-72
2022/04/01 02:47:32;;;;;;;;;;;;;;;22.32;39.18;93440.28;2048181;29;1425;-71
2022/04/01 02:48:33;;;;;;;;;;;;;;;22.32;38.78;93438.41;2046839;28;1326;-72
2022/04/01 02:49:35;;;;;;;;;;;;;;;22.31;39.00;93439.50;2041146;29;1481;-70
2022/04/01 02:50:38;;;;;;;;;;;;;;;22.32;39.01;93426.91;2048326;29;1712;-68
2022/04/01 02:51:40;;;;;;;;;;;;;;;22.32;38.87;93440.28;2050344;28;1574;-73
2022/04/01 02:52:42;;;;;;;;;;;;;;;22.31;38.98;93426.13;2044564;28;1584;-69
2022/04/01 02:53:44;;;;;;;;;;;;;;;22.31;39.20;93422.63;2047751;29;1731;-72
2022/04/01 02:54:45;;;;;;;;;;;;;;;22.31;38.89;93419.97;2048601;29;1134;-72
2022/04/01 02:55:47;;;;;;;;;;;;;;;22.31;39.10;93439.50;2049184;28;1047;-73
2022/04/01 02:56:49;;;;;;;;;;;;;;;22.32;38.94;93442.97;2049169;28;994;-72
2022/04/01 02:57:50;;;;;;;;;;;;;;;22.31;38.94;93430.66;2047709;28;1648;-73
2022/04/01 02:58:53;;;;;;;;;;;;;;;22.31;39.31;93430.66;2041300;29;1081;-68
2022/04/01 02:59:55;;;;;;;;;;;;;;;22.31;39.08;93425.31;2044506;29;1898;-73
2022/04/01 03:00:56;;;;;;;;;;;;;;;22.32;38.96;93432.25;2043912;28;1323;-73
2022/04/01 03:01:58;;;;;;;;;;;;;;;22.32;39.40;93421.56;2047054;29;1644;-74
2022/04/01 03:03:00;;;;;;;;;;;;;;;21.73;34.51;93451.94;2044171;28;1747;-71
2022/04/01 03:04:09;;;;;;;;;;;;;;;20.93;35.46;93442.94;2042961;28;1704;-69
2022/04/01 03:05:12;;;;;;;;;;;;;;;20.29;34.90;93423.03;2048557;29;996;-71
2022/04/01 03:06:14;;;;;;;;;;;;;;;20.17;35.42;93427.66;2049105;28;1183;-71
2022/04/01 03:07:16;;;;;;;;;;;;;;;20.02;34.90;93430.13;2049338;28;1074;-66
2022/04/01 03:08:17;;;;;;;;;;;;;;;19.93;34.21;93429.75;2049110;28;1233;-71
2022/04/01 03:09:19;;;;;;;;;;;;;;;19.82;34.64;93439.44;2048055;29;1179;-69
2022/04/01 03:10:23;;;;;;;;;;;;;;;19.69;34.63;93434.47;2048649;29;1030;-71
2022/04/01 03:11:25;;;;;;;;;;;;;;;19.61;34.24;93449.00;2047537;28;1623;-71
2022/04/01 03:12:27;;;;;;;;;;;;;;;19.59;34.73;93423.66;2048506;28;1153;-69
2022/04/01 03:13:28;;;;;;;;;;;;;;;19.63;34.78;93435.44;2048532;29;1183;-71
2022/04/01 03:14:30;;;;;;;;;;;;;;;19.54;33.85;93429.72;2048219;28;1508;-65
2022/04/01 03:15:32;;;;;;;;;;;;;;;19.47;33.85;93430.91;2045086;28;1671;-70
2022/04/01 03:16:34;;;;;;;;;;;;;;;19.44;34.35;93424.22;2047914;28;1501;-70
2022/04/01 03:17:36;;;;;;;;;;;;;;;19.48;33.71;93422.66;2047155;29;1751;-71
2022/04/01 03:18:40;;;;;;;;;;;;;;;19.48;33.46;93427.19;2048419;28;1068;-70
2022/04/01 03:19:42;;;;;;;;;;;;;;;19.45;34.20;93407.19;2048030;29;1478;-69
2022/04/01 03:20:45;;;;;;;;;;;;;;;19.42;33.91;93408.47;2048145;29;1980;-70
2022/04/01 03:21:46;;;;;;;;;;;;;;;19.35;33.76;93418.50;2048268;28;1581;-68
2022/04/01 03:22:48;;;;;;;;;;;;;;;19.36;33.84;93398.78;2049098;28;1106;-69
2022/04/01 03:23:50;;;;;;;;;;;;;;;19.33;33.42;93399.28;2048664;28;1167;-69
2022/04/01 03:24:52;;;;;;;;;;;;;;;19.19;34.17;93404.13;2048929;28;1161;-69
2022/04/01 03:25:54;;;;;;;;;;;;;;;19.10;34.23;93388.78;2044603;28;941;-69
2022/04/01 03:26:55;;;;;;;;;;;;;;;19.13;34.25;93414.94;2047254;29;1528;-69
2022/04/01 03:27:57;;;;;;;;;;;;;;;19.10;34.33;93386.94;2048452;29;1094;-69
2022/04/01 03:29:01;;;;;;;;;;;;;;;18.92;34.66;93395.13;2049012;28;1053;-69
2022/04/01 03:30:03;;;;;;;;;;;;;;;18.93;35.04;93426.03;2046711;28;1642;-69
2022/04/01 03:31:05;;;;;;;;;;;;;;;18.75;35.41;93432.34;2047495;28;1746;-69
2022/04/01 03:32:07;;;;;;;;;;;;;;;18.82;35.37;93434.91;2049125;28;1089;-69
2022/04/01 03:33:09;;;;;;;;;;;;;;;18.67;35.35;93424.78;2042930;28;1590;-68
2022/04/01 03:34:10;;;;;;;;;;;;;;;18.50;35.85;93384.81;2041187;29;1107;-69
2022/04/01 03:35:14;;;;;;;;;;;;;;;18.65;35.21;93398.41;2047991;29;1715;-64
2022/04/01 03:36:16;;;;;;;;;;;;;;;18.59;35.07;93403.84;2041174;29;1469;-67
2022/04/01 03:37:18;;;;;;;;;;;;;;;18.53;35.41;93418.91;2043491;28;1556;-68
2022/04/01 03:38:20;;;;;;;;;;;;;;;18.37;35.32;93425.78;2047993;29;1589;-70
2022/04/01 03:39:22;;;;;;;;;;;;;;;18.42;35.51;93423.22;2048307;29;1048;-70
2022/04/01 03:40:27;;;;;;;;;;;;;;;18.44;35.35;93412.34;2048035;28;1977;-70
2022/04/01 03:41:30;;;;;;;;;;;;;;;18.38;35.80;93419.44;2049032;28;1008;-70
2022/04/01 03:42:32;;;;;;;;;;;;;;;18.30;35.70;93390.56;2048927;28;1163;-70
2022/04/01 03:43:37;;;;;;;;;;;;;;;18.33;35.77;93398.06;2049212;28;1054;-71
2022/04/01 03:44:41;;;;;;;;;;;;;;;18.59;35.80;93412.63;2049101;28;1104;-71
2022/04/01 03:45:47;;;;;;;;;;;;;;;18.95;34.87;93414.13;2048182;28;1666;-73
2022/04/01 03:46:59;;;;;;;;;;;;;;;18.83;36.80;93425.84;2048629;28;1149;-66
2022/04/01 03:48:01;;;;;;;;;;;;;;;18.86;35.44;93409.41;2040864;28;1481;-68
2022/04/01 03:49:03;;;;;;;;;;;;;;;18.73;35.64;93416.66;2046522;28;1584;-69
2022/04/01 03:50:08;;;;;;;;;;;;;;;18.70;35.71;93419.00;2043454;28;1394;-70
2022/04/01 03:51:11;;;;;;;;;;;;;;;18.64;35.65;93396.78;2046748;28;1789;-70
2022/04/01 03:52:14;;;;;;;;;;;;;;;18.67;36.07;93400.84;2044916;28;1430;-68
2022/04/01 03:53:16;;;;;;;;;;;;;;;18.78;35.60;93405.31;2046831;29;1414;-68
2022/04/01 03:54:19;;;;;;;;;;;;;;;18.55;35.67;93401.69;2047689;28;1536;-70
2022/04/01 03:55:24;;;;;;;;;;;;;;;18.40;36.02;93398.72;2048493;28;1674;-69
2022/04/01 03:56:29;;;;;;;;;;;;;;;18.25;36.30;93390.47;2052054;28;1445;-69
2022/04/01 03:57:35;;;;;;;;;;;;;;;18.41;36.00;93408.31;2050343;28;1461;-70
2022/04/01 03:58:36;;;;;;;;;;;;;;;18.45;35.75;93417.44;2048114;28;1289;-69
2022/04/01 03:59:41;;;;;;;;;;;;;;;18.40;35.89;93427.16;2045585;28;1749;-69
2022/04/01 04:00:43;;;;;;;;;;;;;;;18.73;36.00;93435.28;2046962;29;1914;-73
2022/04/01 04:01:44;;;;;;;;;;;;;;;19.18;34.97;93418.50;2046420;29;1487;-68
2022/04/01 04:02:46;;;;;;;;;;;;;;;19.53;34.59;93390.00;2044360;29;1506;-69
2022/04/01 04:03:49;;;;;;;;;;;;;;;19.81;34.70;93392.53;2047575;28;1270;-69
2022/04/01 04:04:54;;;;;;;;;;;;;;;19.20;35.19;93410.25;2046499;29;1507;-68
2022/04/01 04:05:56;;;;;;;;;;;;;;;18.96;36.56;93421.03;2048236;29;1589;-64
2022/04/01 04:06:58;;;;;;;;;;;;;;;18.77;36.45;93403.66;2041912;29;1882;-65
2022/04/01 04:08:01;;;;;;;;;;;;;;;18.49;36.24;93402.59;2041541;29;1306;-70
2022/04/01 04:09:03;;;;;;;;;;;;;;;18.61;36.05;93423.03;2046814;29;1579;-69
2022/04/01 04:10:06;;;;;;;;;;;;;;;18.52;36.32;93422.59;2043784;28;1118;-71
2022/04/01 04:11:09;;;;;;;;;;;;;;;18.33;36.05;93414.00;2049380;28;1417;-67
2022/04/01 04:12:13;;;;;;;;;;;;;;;18.36;36.67;93408.22;2048639;28;1019;-69
2022/04/01 04:13:16;;;;;;;;;;;;;;;18.77;36.10;93411.66;2044453;28;1547;-70
2022/04/01 04:14:19;;;;;;;;;;;;;;;19.20;35.51;93404.91;2040589;29;1159;-66
2022/04/01 04:15:21;;;;;;;;;;;;;;;19.56;35.74;93408.16;2040002;29;1136;-70
2022/04/01 04:16:30;;;;;;;;;;;;;;;19.86;35.39;93413.94;2041184;28;1240;-70
2022/04/01 04:17:39;;;;;;;;;;;;;;;20.12;35.81;93406.28;2047543;28;1712;-70
2022/04/01 04:18:42;;;;;;;;;;;;;;;20.31;35.29;93398.75;2044685;29;1328;-69
2022/04/01 04:19:53;;;;;;;;;;;;;;;20.43;34.82;93391.47;2043236;28;1591;-70
2022/04/01 04:20:55;;;;;;;;;;;;;;;20.43;33.99;93393.31;2041708;29;1968;-70
2022/04/01 04:22:00;;;;;;;;;;;;;;;20.49;34.48;93397.66;2044449;28;1707;-70
2022/04/01 04:23:06;;;;;;;;;;;;;;;20.61;34.82;93381.50;2044494;28;1518;-69
2022/04/01 04:24:15;;;;;;;;;;;;;;;20.66;34.83;93390.38;2042390;29;977;-68
2022/04/01 04:25:33;;;;;;;;;;;;;;;20.74;34.66;93403.28;2042010;29;1066;-70
2022/04/01 04:26:38;;;;;;;;;;;;;;;20.79;34.62;93411.31;2041839;29;1009;-69
2022/04/01 04:27:46;;;;;;;;;;;;;;;20.84;34.67;93404.44;2041812;29;1152;-69
2022/04/01 04:28:50;;;;;;;;;;;;;;;20.86;34.65;93403.13;2041842;29;2000;-69
2022/04/01 04:29:52;;;;;;;;;;;;;;;20.89;34.50;93397.28;2042361;29;1172;-70
2022/04/01 04:30:55;;;;;;;;;;;;;;;20.93;34.32;93400.25;2042192;29;1058;-70
2022/04/01 04:32:05;;;;;;;;;;;;;;;20.94;34.38;93408.00;2037152;29;1039;-67
2022/04/01 04:33:08;;;;;;;;;;;;;;;20.96;34.50;93403.19;2042702;29;1026;-70
2022/04/01 04:34:10;;;;;;;;;;;;;;;20.98;34.26;93403.75;2042363;29;1093;-70
2022/04/01 04:35:12;;;;;;;;;;;;;;;21.00;34.55;93403.53;2042351;29;981;-66
2022/04/01 04:36:19;;;;;;;;;;;;;;;21.02;34.41;93409.41;2042824;29;1136;-70
2022/04/01 04:37:27;;;;;;;;;;;;;;;21.04;34.46;93417.16;2041764;29;1082;-69
2022/04/01 04:38:29;;;;;;;;;;;;;;;21.06;34.21;93425.69;2042703;29;1171;-70
2022/04/01 04:39:35;;;;;;;;;;;;;;;21.07;34.42;93424.66;2042269;29;1196;-70
2022/04/01 04:40:36;;;;;;;;;;;;;;;21.08;34.49;93419.06;2042663;29;1019;-70
2022/04/01 04:41:39;;;;;;;;;;;;;;;21.10;34.42;93411.59;2042309;29;1968;-70
2022/04/01 04:42:48;;;;;;;;;;;;;;;21.10;34.22;93406.25;2041161;29;985;-69
2022/04/01 04:43:50;;;;;;;;;;;;;;;21.11;34.15;93399.06;2041903;29;1407;-69
2022/04/01 04:44:52;;;;;;;;;;;;;;;21.13;34.34;93410.28;2041193;29;1057;-67
2022/04/01 04:45:56;;;;;;;;;;;;;;;21.12;34.32;93412.16;2042292;29;1086;-70
2022/04/01 04:47:01;;;;;;;;;;;;;;;21.15;34.14;93417.00;2041601;29;973;-70
2022/04/01 04:48:04;;;;;;;;;;;;;;;21.16;34.10;93404.44;2041485;29;1129;-70
2022/04/01 04:49:06;;;;;;;;;;;;;;;21.16;34.11;93409.78;2041985;29;1098;-70
2022/04/01 04:50:08;;;;;;;;;;;;;;;21.17;34.26;93411.38;2041840;29;1046;-70
2022/04/01 04:51:10;;;;;;;;;;;;;;;21.18;34.21;93421.06;2042634;29;1825;-69
2022/04/01 04:52:12;;;;;;;;;;;;;;;21.18;34.11;93421.84;2041911;29;1128;-69
2022/04/01 04:53:14;;;;;;;;;;;;;;;21.19;34.16;93410.09;2042291;29;1206;-65
2022/04/01 04:54:17;;;;;;;;;;;;;;;21.20;34.17;93390.38;2037819;29;1117;-70
2022/04/01 04:55:19;;;;;;;;;;;;;;;21.22;34.13;93392.78;2046576;29;1190;-70
2022/04/01 04:56:21;;;;;;;;;;;;;;;21.22;34.07;93403.44;2050649;28;1042;-70
2022/04/01 04:57:25;;;;;;;;;;;;;;;21.23;34.17;93410.44;2049980;28;1040;-69
2022/04/01 04:58:31;;;;;;;;;;;;;;;21.24;34.20;93420.03;2050273;28;1178;-70
2022/04/01 04:59:34;;;;;;;;;;;;;;;21.26;34.19;93425.13;2050211;28;1242;-70
2022/04/01 05:00:36;;;;;;;;;;;;;;;21.27;34.27;93426.75;2050245;28;1101;-68
2022/04/01 05:01:40;;;;;;;;;;;;;;;21.27;34.07;93408.03;2050620;28;1907;-70
2022/04/01 05:02:42;;;;;;;;;;;;;;;21.27;34.13;93410.72;2050236;28;1038;-70
2022/04/01 05:04:03;;;;;;;;;;;;;;;21.28;34.00;93404.31;2050100;28;1107;-70
2022/04/01 05:05:12;;;;;;;;;;;;;;;21.28;34.02;93407.78;2045405;28;1155;-70
2022/04/01 05:06:16;;;;;;;;;;;;;;;21.29;34.14;93409.41;2050296;28;1058;-69
2022/04/01 05:07:29;;;;;;;;;;;;;;;21.29;33.99;93408.59;2049929;29;1090;-70
2022/04/01 05:08:44;;;;;;;;;;;;;;;21.30;34.09;93388.84;2049464;29;1024;-70
2022/04/01 05:09:55;;;;;;;;;;;;;;;21.32;34.04;93400.06;2049779;29;1040;-70
2022/04/01 05:11:16;;;;;;;;;;;;;;;21.33;33.90;93404.34;2050060;28;1031;-69
2022/04/01 05:12:30;;;;;;;;;;;;;;;21.33;34.01;93412.34;2050573;28;1064;-70
2022/04/01 05:13:40;;;;;;;;;;;;;;;21.34;33.88;93411.28;2057471;28;1040;-71
2022/04/01 05:14:42;;;;;;;;;;;;;;;21.36;33.95;93395.81;2055823;28;1121;-70
2022/04/01 05:15:48;;;;;;;;;;;;;;;21.34;33.82;93385.41;2048900;28;970;-68
2022/04/01 05:16:50;;;;;;;;;;;;;;;21.35;33.92;93375.53;2049115;28;1091;-70
2022/04/01 05:17:52;;;;;;;;;;;;;;;21.36;33.86;93366.44;2050129;28;1069;-70
2022/04/01 05:18:59;;;;;;;;;;;;;;;21.36;33.86;93369.09;2049983;28;1179;-68
2022/04/01 05:20:03;;;;;;;;;;;;;;;21.37;33.93;93373.38;2050214;28;1108;-67
2022/04/01 05:21:10;;;;;;;;;;;;;;;21.38;33.89;93377.69;2049833;28;1914;-70
2022/04/01 05:22:15;;;;;;;;;;;;;;;21.38;33.99;93375.00;2049864;28;1172;-65
2022/04/01 05:23:26;;;;;;;;;;;;;;;21.39;33.91;93382.75;2050180;28;1088;-69
2022/04/01 05:24:57;;;;;;;;;;;;;;;21.39;33.62;93382.75;2050190;28;1163;-69
2022/04/01 05:26:04;;;;;;;;;;;;;;;21.41;33.90;93385.19;2041487;28;1318;-68
2022/04/01 05:27:11;;;;;;;;;;;;;;;21.42;33.76;93386.78;2045529;28;1339;-70
2022/04/01 05:28:24;;;;;;;;;;;;;;;21.42;34.08;93392.13;2049811;28;1032;-64
2022/04/01 05:29:26;;;;;;;;;;;;;;;21.42;33.94;93392.13;2049751;28;1026;-69
2022/04/01 05:30:29;;;;;;;;;;;;;;;21.42;33.75;93384.09;2050140;28;1105;-71
2022/04/01 05:31:34;;;;;;;;;;;;;;;21.43;33.83;93380.41;2049968;28;1131;-69
2022/04/01 05:32:38;;;;;;;;;;;;;;;21.43;33.73;93369.69;2050278;28;1357;-68
2022/04/01 05:33:53;;;;;;;;;;;;;;;21.43;33.77;93364.38;2050125;28;1203;-68
2022/04/01 05:34:57;;;;;;;;;;;;;;;21.44;33.71;93365.97;2048961;28;1163;-69
2022/04/01 05:35:59;;;;;;;;;;;;;;;21.44;33.87;93374.78;2057318;28;1108;-69
2022/04/01 05:37:01;;;;;;;;;;;;;;;21.45;33.67;93368.38;2056814;28;1212;-67
2022/04/01 05:38:04;;;;;;;;;;;;;;;21.47;33.87;93384.16;2045439;28;1112;-69
2022/04/01 05:39:05;;;;;;;;;;;;;;;21.47;33.65;93381.47;2049762;28;1459;-62